Time;durP1;ratioP1;P1;durP2;ratioP2;P2;SDS_P1;SDS_P2;PMS_P1;PMS_P2;Temp;Humidity;BMP_temperature;BMP_pressure;BME280_temperature;BME280_humidity;BME280_pressure;Samples;Min_cycle;Max_cycle;Signal;HPM_P1;HPM_P2
2022/05/31 00:01:08;;;;;;;4.50;3.85;;;11.30;99.90;;;;;;4986662;28;20085;-76
2022/05/31 00:03:34;;;;;;;3.60;3.30;;;11.20;99.90;;;;;;4985957;28;20089;-76
2022/05/31 00:06:00;;;;;;;4.40;4.00;;;11.20;99.90;;;;;;4987197;28;20402;-77
2022/05/31 00:08:25;;;;;;;4.30;3.92;;;11.20;99.90;;;;;;4984686;28;20046;-77
2022/05/31 00:11:06;;;;;;;4.32;3.90;;;11.20;99.90;;;;;;4981425;28;20147;-76
2022/05/31 00:13:32;;;;;;;3.85;3.55;;;11.10;99.90;;;;;;4990882;28;20038;-76
2022/05/31 00:15:57;;;;;;;4.07;3.67;;;11.10;99.90;;;;;;4987708;28;20113;-76
2022/05/31 00:18:23;;;;;;;3.97;3.50;;;11.10;99.90;;;;;;4994151;28;20069;-76
2022/05/31 00:20:49;;;;;;;3.72;3.42;;;11.00;99.90;;;;;;4989286;28;20125;-77
2022/05/31 00:23:14;;;;;;;4.00;3.67;;;11.00;99.90;;;;;;4991467;28;20121;-77
2022/05/31 00:25:40;;;;;;;4.10;3.80;;;11.00;99.90;;;;;;4990563;28;20418;-77
2022/05/31 00:28:06;;;;;;;4.20;3.80;;;11.00;99.90;;;;;;4988528;28;20082;-77
2022/05/31 00:30:32;;;;;;;5.72;3.60;;;11.00;99.90;;;;;;4992985;28;20038;-77
2022/05/31 00:33:00;;;;;;;4.22;3.92;;;11.00;99.90;;;;;;4992532;28;20046;-77
2022/05/31 00:35:32;;;;;;;3.83;3.45;;;11.00;99.90;;;;;;4992160;28;20122;-77
2022/05/31 00:37:59;;;;;;;3.88;3.58;;;10.90;99.90;;;;;;4991730;28;20042;-77
2022/05/31 00:40:30;;;;;;;4.07;3.78;;;10.90;99.90;;;;;;5007744;28;20129;-77
2022/05/31 00:42:58;;;;;;;4.88;4.05;;;10.80;99.90;;;;;;4987864;28;20050;-76
2022/05/31 00:45:38;;;;;;;6.05;3.88;;;10.80;99.90;;;;;;4975249;28;20135;-77
2022/05/31 00:48:09;;;;;;;4.20;3.80;;;10.80;99.90;;;;;;4985757;28;20054;-76
2022/05/31 00:50:41;;;;;;;3.78;3.47;;;10.80;99.90;;;;;;4990715;28;20113;-76
2022/05/31 00:53:16;;;;;;;4.13;3.83;;;10.70;99.90;;;;;;4992270;28;20054;-76
2022/05/31 00:55:46;;;;;;;4.20;3.80;;;10.70;99.90;;;;;;4991322;28;20096;-76
2022/05/31 00:58:39;;;;;;;5.03;3.95;;;10.70;99.90;;;;;;4979660;28;20406;-76
2022/05/31 01:01:09;;;;;;;5.00;3.72;;;10.60;99.90;;;;;;4987072;28;20742;-76
2022/05/31 01:03:39;;;;;;;4.03;3.63;;;10.60;99.90;;;;;;4983609;28;20050;-76
2022/05/31 01:06:05;;;;;;;4.15;3.45;;;10.60;99.90;;;;;;4990862;28;20085;-76
2022/05/31 01:08:36;;;;;;;4.10;3.70;;;10.50;99.90;;;;;;4989808;28;20039;-76
2022/05/31 01:11:03;;;;;;;3.38;3.17;;;10.50;99.90;;;;;;4989732;28;20976;-76
2022/05/31 01:13:29;;;;;;;4.35;3.70;;;10.50;99.90;;;;;;4976896;28;20387;-76
2022/05/31 01:16:07;;;;;;;4.43;4.03;;;10.50;99.90;;;;;;4989242;28;20046;-76
2022/05/31 01:18:34;;;;;;;4.05;3.58;;;10.40;99.90;;;;;;4982435;28;20057;-76
2022/05/31 01:21:00;;;;;;;4.28;3.88;;;10.40;99.90;;;;;;4990434;28;20050;-77
2022/05/31 01:23:29;;;;;;;4.30;3.60;;;10.40;99.90;;;;;;4981352;28;20390;-76
2022/05/31 01:26:12;;;;;;;4.05;3.65;;;10.40;99.90;;;;;;4986874;28;20206;-76
2022/05/31 01:29:21;;;;;;;4.43;4.03;;;10.40;99.90;;;;;;4985773;28;20129;-76
2022/05/31 01:31:59;;;;;;;3.78;3.47;;;10.30;99.90;;;;;;4948165;28;20098;-76
2022/05/31 01:34:29;;;;;;;3.72;3.42;;;10.30;99.90;;;;;;4980543;28;20164;-76
2022/05/31 01:36:56;;;;;;;4.18;3.75;;;10.30;99.90;;;;;;4985756;28;20157;-76
2022/05/31 01:39:44;;;;;;;3.88;3.58;;;10.30;99.90;;;;;;4990845;28;20047;-76
2022/05/31 01:42:34;;;;;;;4.35;3.95;;;10.30;99.90;;;;;;4984913;28;20050;-76
2022/05/31 01:45:28;;;;;;;4.57;3.42;;;10.20;99.90;;;;;;4990151;28;20113;-76
2022/05/31 01:47:56;;;;;;;;;;;10.20;99.90;;;;;;4977943;28;20091;-77
2022/05/31 01:50:22;;;;;;;5.97;3.95;;;10.20;99.90;;;;;;4978062;28;20249;-77
2022/05/31 01:52:50;;;;;;;4.13;3.72;;;10.10;99.90;;;;;;4991504;28;20050;-76
2022/05/31 01:55:16;;;;;;;3.70;3.40;;;10.10;99.90;;;;;;4988500;28;20397;-76
2022/05/31 01:57:48;;;;;;;3.83;3.50;;;10.10;99.90;;;;;;4987907;28;20053;-76
2022/05/31 02:00:16;;;;;;;3.92;3.63;;;10.10;99.90;;;;;;4990001;28;20038;-76
2022/05/31 02:02:47;;;;;;;3.97;3.65;;;10.00;99.90;;;;;;4985897;28;20483;-76
2022/05/31 02:05:13;;;;;;;4.00;3.70;;;10.00;99.90;;;;;;5002884;28;20459;-76
2022/05/31 02:07:39;;;;;;;4.00;3.33;;;10.00;99.90;;;;;;4988536;28;20647;-76
2022/05/31 02:10:05;;;;;;;5.05;3.65;;;9.80;99.90;;;;;;4988517;28;20046;-76
2022/05/31 02:12:31;;;;;;;4.00;3.60;;;9.90;99.90;;;;;;4988913;28;20080;-76
2022/05/31 02:14:57;;;;;;;4.20;3.80;;;9.90;99.90;;;;;;4992105;28;20126;-76
2022/05/31 02:17:24;;;;;;;3.72;3.42;;;9.80;99.90;;;;;;4987192;28;20543;-76
2022/05/31 02:19:50;;;;;;;3.83;3.53;;;9.90;99.90;;;;;;4988529;28;20088;-77
2022/05/31 02:22:18;;;;;;;4.05;3.75;;;9.80;99.90;;;;;;4986873;28;20060;-76
2022/05/31 02:24:44;;;;;;;3.95;3.60;;;9.80;99.90;;;;;;4984156;28;20121;-76
2022/05/31 02:27:14;;;;;;;4.05;3.67;;;9.80;99.90;;;;;;4985368;28;20145;-76
2022/05/31 02:29:40;;;;;;;4.13;3.60;;;9.80;99.90;;;;;;4991414;28;20056;-76
2022/05/31 02:32:08;;;;;;;4.45;3.47;;;9.70;99.90;;;;;;4986589;28;20482;-76
2022/05/31 02:34:38;;;;;;;3.80;3.50;;;9.70;99.90;;;;;;4986561;28;20066;-76
2022/05/31 02:37:05;;;;;;;4.13;3.72;;;9.70;99.90;;;;;;4987467;28;20077;-76
2022/05/31 02:39:31;;;;;;;5.63;3.70;;;9.70;99.90;;;;;;4989876;28;20042;-76
2022/05/31 02:41:56;;;;;;;4.72;3.58;;;9.70;99.90;;;;;;4985180;28;20521;-77
2022/05/31 02:44:23;;;;;;;4.10;3.70;;;9.70;99.90;;;;;;4985058;28;20044;-76
2022/05/31 02:46:49;;;;;;;4.30;3.70;;;9.70;99.90;;;;;;4989741;28;20140;-76
2022/05/31 02:49:15;;;;;;;4.05;3.70;;;9.70;99.90;;;;;;4987054;28;20096;-77
2022/05/31 02:51:43;;;;;;;4.07;3.78;;;9.60;99.90;;;;;;4987032;28;20449;-76
2022/05/31 02:54:14;;;;;;;4.20;3.70;;;9.60;99.90;;;;;;4988200;28;20784;-76
2022/05/31 02:56:40;;;;;;;4.40;4.00;;;9.60;99.90;;;;;;4990268;28;20038;-76
2022/05/31 02:59:07;;;;;;;3.72;3.42;;;9.60;99.90;;;;;;4987880;28;20559;-76
2022/05/31 03:01:35;;;;;;;4.50;3.97;;;9.60;99.90;;;;;;4990798;28;20108;-76
2022/05/31 03:04:01;;;;;;;4.45;3.83;;;9.60;99.90;;;;;;4986924;28;20060;-76
2022/05/31 03:06:27;;;;;;;3.80;3.50;;;9.60;99.90;;;;;;4985489;28;20383;-76
2022/05/31 03:08:53;;;;;;;4.10;3.80;;;9.50;99.90;;;;;;4989210;28;20038;-76
2022/05/31 03:11:37;;;;;;;4.43;3.35;;;9.50;99.90;;;;;;4987640;28;20483;-76
2022/05/31 03:14:10;;;;;;;3.85;3.42;;;9.50;99.90;;;;;;4987345;28;20474;-76
2022/05/31 03:16:43;;;;;;;4.15;3.85;;;9.60;99.90;;;;;;4985917;28;20047;-76
2022/05/31 03:19:14;;;;;;;4.85;3.90;;;9.60;99.90;;;;;;4986727;28;20078;-76
2022/05/31 03:21:45;;;;;;;4.50;4.10;;;9.60;99.90;;;;;;4978813;28;20069;-76
2022/05/31 03:24:20;;;;;;;5.15;4.28;;;9.60;99.90;;;;;;4986781;28;20054;-76
2022/05/31 03:26:50;;;;;;;4.10;3.80;;;9.50;99.90;;;;;;4987897;28;20054;-76
2022/05/31 03:29:18;;;;;;;4.22;3.90;;;9.50;99.90;;;;;;4988420;28;20105;-76
2022/05/31 03:31:44;;;;;;;4.47;3.83;;;9.60;99.90;;;;;;4989067;28;20046;-76
2022/05/31 03:34:09;;;;;;;4.43;3.97;;;9.60;99.90;;;;;;4988038;28;20054;-76
2022/05/31 03:36:38;;;;;;;3.95;3.55;;;9.60;99.90;;;;;;4982661;28;20034;-76
2022/05/31 03:39:04;;;;;;;4.10;3.70;;;9.60;99.90;;;;;;4986397;28;20121;-76
2022/05/31 03:41:34;;;;;;;4.25;3.85;;;10.20;99.90;;;;;;4985198;28;20118;-76
2022/05/31 03:44:00;;;;;;;4.40;4.00;;;9.70;99.90;;;;;;4989238;28;20497;-76
2022/05/31 03:46:26;;;;;;;4.28;3.88;;;10.00;99.90;;;;;;4986395;28;20042;-76
2022/05/31 03:48:52;;;;;;;4.93;4.05;;;9.60;99.90;;;;;;4988117;28;20034;-77
2022/05/31 03:51:17;;;;;;;3.92;3.63;;;9.60;99.90;;;;;;4990047;28;20081;-77
2022/05/31 03:53:46;;;;;;;4.40;4.00;;;9.70;99.90;;;;;;4989636;28;20930;-77
2022/05/31 03:56:13;;;;;;;4.65;4.22;;;9.70;99.90;;;;;;4984675;28;20057;-77
2022/05/31 03:58:39;;;;;;;4.35;3.90;;;9.60;99.90;;;;;;4989960;28;20374;-77
2022/05/31 04:01:06;;;;;;;4.47;4.07;;;9.70;99.90;;;;;;4995892;28;20053;-77
2022/05/31 04:03:32;;;;;;;4.40;4.00;;;9.70;99.90;;;;;;4990854;28;20328;-77
2022/05/31 04:05:58;;;;;;;4.65;4.10;;;9.70;99.90;;;;;;4995335;28;20080;-77
2022/05/31 04:08:24;;;;;;;4.53;4.20;;;9.70;99.90;;;;;;4987131;28;21569;-77
2022/05/31 04:10:54;;;;;;;4.63;4.20;;;9.70;99.90;;;;;;4989643;28;20530;-77
2022/05/31 04:13:25;;;;;;;4.32;3.92;;;9.80;99.90;;;;;;4991736;28;20045;-77
2022/05/31 04:16:12;;;;;;;4.43;4.03;;;9.80;99.90;;;;;;4988800;28;20042;-77
2022/05/31 04:18:39;;;;;;;4.55;4.13;;;9.80;99.90;;;;;;4990621;28;20038;-77
2022/05/31 04:21:07;;;;;;;5.35;4.45;;;9.90;99.90;;;;;;4994469;28;20045;-77
2022/05/31 04:26:18;;;;;;;4.22;3.83;;;9.90;99.90;;;;;;4990250;28;20417;-77
2022/05/31 04:28:44;;;;;;;4.85;4.35;;;10.00;99.90;;;;;;4988289;28;20407;-77
2022/05/31 04:31:09;;;;;;;4.60;4.20;;;10.00;99.90;;;;;;4990229;28;20042;-77
2022/05/31 04:33:35;;;;;;;4.80;4.25;;;10.00;99.90;;;;;;4991857;28;20046;-78
2022/05/31 04:36:13;;;;;;;4.30;3.90;;;10.00;99.90;;;;;;4992130;28;20125;-77
2022/05/31 04:38:42;;;;;;;5.30;4.78;;;10.00;99.90;;;;;;4987755;28;20410;-77
2022/05/31 04:41:14;;;;;;;5.50;4.53;;;10.00;99.90;;;;;;4988694;28;20044;-77
2022/05/31 04:43:40;;;;;;;4.88;4.35;;;10.00;99.90;;;;;;4986801;28;20046;-77
2022/05/31 04:46:10;;;;;;;4.53;4.13;;;;;;;;;;4991064;28;20482;-77
2022/05/31 04:48:36;;;;;;;4.57;4.03;;;;;;;;;;4984901;28;20046;-77
2022/05/31 04:51:02;;;;;;;4.85;4.18;;;;;;;;;;4992786;28;20042;-77
2022/05/31 04:53:28;;;;;;;4.90;4.00;;;;;;;;;;4993816;28;20120;-77
2022/05/31 04:55:59;;;;;;;4.88;4.47;;;;;;;;;;4991526;28;20073;-76
2022/05/31 04:58:25;;;;;;;4.45;4.05;;;;;;;;;;4991285;28;20716;-76
2022/05/31 05:00:54;;;;;;;5.53;4.05;;;;;;;;;;4988859;28;20386;-76
2022/05/31 05:03:20;;;;;;;4.72;4.20;;;;;;;;;;5000649;28;20050;-76
2022/05/31 05:05:46;;;;;;;4.50;3.95;;;;;;;;;;4990179;28;20052;-76
2022/05/31 05:08:12;;;;;;;4.35;4.03;;;;;;;;;;4985417;28;22002;-76
2022/05/31 05:10:44;;;;;;;4.20;3.70;;;;;;;;;;4989930;28;20050;-76
2022/05/31 05:13:10;;;;;;;4.30;3.90;;;;;;;;;;4986203;28;20050;-76
2022/05/31 05:15:42;;;;;;;4.03;3.72;;;10.10;99.90;;;;;;4986718;28;20402;-76
2022/05/31 05:18:09;;;;;;;4.70;4.28;;;10.30;99.90;;;;;;4992532;28;20050;-76
2022/05/31 05:20:38;;;;;;;4.60;3.95;;;10.30;99.90;;;;;;4989824;28;20054;-76
2022/05/31 05:23:04;;;;;;;5.57;4.50;;;10.30;99.90;;;;;;4984578;28;20053;-76
2022/05/31 05:25:30;;;;;;;4.25;3.95;;;10.40;99.90;;;;;;4988473;28;20042;-76
2022/05/31 05:27:59;;;;;;;4.68;4.20;;;10.40;99.90;;;;;;4984851;28;20478;-76
2022/05/31 05:30:41;;;;;;;4.78;3.80;;;;;;;;;;4989007;28;20049;-76
2022/05/31 05:33:10;;;;;;;4.57;4.10;;;;;;;;;;4986366;28;20039;-76
2022/05/31 05:35:36;;;;;;;5.80;4.57;;;;;;;;;;4987904;28;20218;-76
2022/05/31 05:38:02;;;;;;;5.10;4.28;;;;;;;;;;4986969;28;20054;-76
2022/05/31 05:40:28;;;;;;;4.55;4.07;;;;;;;;;;4988952;28;20100;-76
2022/05/31 05:42:54;;;;;;;4.50;4.10;;;;;;;;;;4987562;28;20122;-77
2022/05/31 05:45:26;;;;;;;7.18;4.75;;;;;;;;;;4988309;28;20495;-77
2022/05/31 05:47:52;;;;;;;5.28;4.60;;;;;;;;;;4992293;28;20034;-76
2022/05/31 05:50:18;;;;;;;4.63;4.22;;;;;;;;;;4988930;28;20046;-76
2022/05/31 05:52:49;;;;;;;4.90;4.22;;;;;;;;;;5001378;28;20125;-77
2022/05/31 05:55:15;;;;;;;4.40;4.00;;;;;;;;;;4997979;28;20130;-77
2022/05/31 05:57:41;;;;;;;4.32;4.03;;;;;;;;;;4989937;28;20121;-77
2022/05/31 06:00:07;;;;;;;4.57;4.10;;;;;;;;;;4991779;28;20482;-77
2022/05/31 06:02:35;;;;;;;4.38;3.97;;;;;;;;;;4992459;28;20086;-77
2022/05/31 06:05:08;;;;;;;6.25;4.32;;;;;;;;;;4986577;28;20049;-77
2022/05/31 06:07:34;;;;;;;;;;;;;;;;;;4990049;28;20065;-77
2022/05/31 06:10:15;;;;;;;4.70;4.07;;;;;;;;;;4989684;28;19922;-77
2022/05/31 06:12:43;;;;;;;5.90;4.30;;;;;;;;;;4988131;28;20050;-76
2022/05/31 06:15:11;;;;;;;4.45;4.05;;;;;;;;;;4986822;28;20050;-76
2022/05/31 06:17:40;;;;;;;4.18;3.78;;;;;;;;;;4988881;28;20395;-77
2022/05/31 06:20:07;;;;;;;4.95;4.07;;;;;;;;;;4989497;28;20145;-77
2022/05/31 06:22:35;;;;;;;5.32;4.68;;;;;;;;;;5002542;28;20085;-77
2022/05/31 06:25:01;;;;;;;5.50;4.25;;;;;;;;;;4986715;28;20101;-77
2022/05/31 06:27:28;;;;;;;6.35;4.75;;;;;;;;;;4985730;28;20050;-76
2022/05/31 06:29:54;;;;;;;6.30;4.47;;;;;;;;;;4989691;28;20057;-77
2022/05/31 06:32:20;;;;;;;4.47;4.07;;;;;;;;;;4990405;28;20054;-77
2022/05/31 06:34:46;;;;;;;5.35;4.40;;;;;;;;;;4990573;28;20049;-77
2022/05/31 06:37:14;;;;;;;4.63;4.18;;;;;;;;;;4984875;28;20050;-78
2022/05/31 06:39:41;;;;;;;4.55;4.13;;;;;;;;;;4985238;28;20046;-77
2022/05/31 06:42:08;;;;;;;5.43;4.43;;;;;;;;;;4977016;28;20114;-77
2022/05/31 06:44:44;;;;;;;4.97;4.40;;;;;;;;;;4988594;28;20060;-77
2022/05/31 06:47:11;;;;;;;5.22;4.35;;;;;;;;;;4988316;28;20116;-77
2022/05/31 06:49:41;;;;;;;7.70;4.63;;;;;;;;;;4985885;28;20386;-77
2022/05/31 06:57:40;;;;;;;6.82;4.40;;;;;;;;;;4986514;28;20050;-76
2022/05/31 07:00:08;;;;;;;5.18;4.50;;;;;;;;;;4987258;28;20114;-76
2022/05/31 07:02:34;;;;;;;5.10;4.55;;;;;;;;;;4988576;28;20069;-76
2022/05/31 07:05:00;;;;;;;6.68;4.75;;;;;;;;;;4990703;28;20429;-76
2022/05/31 07:07:26;;;;;;;6.85;4.90;;;;;;;;;;4990217;28;20091;-76
2022/05/31 07:09:52;;;;;;;4.95;4.43;;;;;;;;;;4990685;28;20046;-76
2022/05/31 07:12:18;;;;;;;5.07;4.57;;;;;;;;;;4989307;28;20458;-75
2022/05/31 07:14:44;;;;;;;5.70;5.07;;;;;;;;;;4990237;28;20045;-75
2022/05/31 07:17:10;;;;;;;5.60;5.00;;;;;;;;;;4988206;28;20050;-76
2022/05/31 07:19:38;;;;;;;5.50;5.00;;;;;;;;;;4988809;28;20128;-76
2022/05/31 07:22:04;;;;;;;5.38;4.88;;;;;;;;;;4988241;28;20050;-76
2022/05/31 07:24:30;;;;;;;5.35;4.85;;;;;;;;;;4983077;28;20475;-76
2022/05/31 07:26:56;;;;;;;6.05;5.43;;;;;;;;;;4983785;28;20074;-76
2022/05/31 07:29:22;;;;;;;5.22;4.72;;;;;;;;;;4978516;28;20042;-75
2022/05/31 07:31:48;;;;;;;5.20;4.70;;;;;;;;;;4994756;28;20449;-76
2022/05/31 07:34:23;;;;;;;7.97;5.72;;;;;;;;;;4995919;28;20050;-75
2022/05/31 07:36:49;;;;;;;6.45;5.25;;;;;;;;;;4992761;28;20042;-75
2022/05/31 07:39:17;;;;;;;6.10;5.50;;;;;;;;;;4994259;28;20371;-76
2022/05/31 07:41:45;;;;;;;6.40;5.40;;;;;;;;;;4994271;28;20509;-75
2022/05/31 07:44:11;;;;;;;7.10;5.65;;;;;;;;;;4995790;28;20093;-76
2022/05/31 07:46:38;;;;;;;6.50;5.70;;;;;;;;;;4993866;28;20042;-76
2022/05/31 07:49:04;;;;;;;8.30;5.97;;;;;;;;;;4995672;28;20086;-75
2022/05/31 07:51:30;;;;;;;6.13;5.50;;;;;;;;;;4993222;28;20494;-76
2022/05/31 07:54:02;;;;;;;6.55;5.82;;;;;;;;;;4994068;28;20360;-76
2022/05/31 07:56:29;;;;;;;6.82;6.00;;;;;;;;;;4993904;28;20508;-75
2022/05/31 07:58:55;;;;;;;8.57;5.70;;;;;;;;;;4994361;28;20042;-75
2022/05/31 08:01:24;;;;;;;7.85;5.20;;;;;;;;;;4995223;28;20509;-76
2022/05/31 08:03:51;;;;;;;6.20;5.18;;;;;;;;;;4994182;28;20097;-76
2022/05/31 08:06:18;;;;;;;7.40;5.25;;;;;;;;;;4990248;28;20042;-75
2022/05/31 08:08:44;;;;;;;5.82;5.05;;;;;;;;;;4993926;28;20105;-76
2022/05/31 08:11:16;;;;;;;6.03;5.40;;;;;;;;;;4994320;28;20097;-75
2022/05/31 08:13:42;;;;;;;5.93;5.15;;;;;;;;;;4992626;28;20137;-75
2022/05/31 08:16:10;;;;;;;5.88;5.25;;;;;;;;;;4974307;28;20379;-75
2022/05/31 08:18:36;;;;;;;7.22;6.10;;;;;;;;;;5005306;28;20133;-75
2022/05/31 08:21:14;;;;;;;6.40;5.80;;;;;;;;;;4991903;28;20487;-76
2022/05/31 08:23:40;;;;;;;8.13;5.80;;;;;;;;;;4995184;28;20469;-75
2022/05/31 08:26:07;;;;;;;6.72;5.40;;;;;;;;;;4994601;28;20050;-75
2022/05/31 08:28:34;;;;;;;6.35;5.65;;;;;;;;;;4992713;28;20054;-75
2022/05/31 08:31:04;;;;;;;5.80;5.25;;;;;;;;;;4993152;28;20154;-75
2022/05/31 08:33:31;;;;;;;7.00;5.55;;;;;;;;;;4992827;28;20093;-75
2022/05/31 08:35:57;;;;;;;6.38;5.25;;;;;;;;;;4993543;28;20129;-76
2022/05/31 08:38:23;;;;;;;8.23;5.68;;;;;;;;;;4992905;28;20453;-75
2022/05/31 08:40:59;;;;;;;5.93;5.30;;;;;;;;;;4992937;28;20054;-75
2022/05/31 08:43:32;;;;;;;5.75;5.00;;;;;;;;;;4990449;28;20050;-76
2022/05/31 08:45:58;;;;;;;;;;;;;;;;;;4990396;28;20129;-76
2022/05/31 08:48:30;;;;;;;5.15;4.00;;;;;;;;;;4973921;28;20013;-75
2022/05/31 08:56:56;;;;;;;6.75;5.00;;;;;;;;;;4993191;28;20054;-76
2022/05/31 08:59:28;;;;;;;4.88;3.72;;;;;;;;;;4994783;28;20046;-75
2022/05/31 09:01:56;;;;;;;7.45;4.90;;;;;;;;;;4992238;28;20829;-76
2022/05/31 09:04:25;;;;;;;6.90;4.80;;;;;;;;;;4993090;28;20089;-75
2022/05/31 09:06:58;;;;;;;5.55;4.90;;;;;;;;;;4992197;28;20201;-75
2022/05/31 09:09:26;;;;;;;4.88;4.47;;;;;;;;;;4993706;28;20061;-75
2022/05/31 09:11:58;;;;;;;5.72;4.57;;;;;;;;;;4993187;28;20049;-75
2022/05/31 09:14:24;;;;;;;5.30;4.80;;;;;;;;;;4991093;28;20132;-76
2022/05/31 09:16:52;;;;;;;5.63;5.00;;;;;;;;;;4985682;28;20492;-75
2022/05/31 09:19:27;;;;;;;6.32;4.90;;;;;;;;;;4989038;28;20145;-75
2022/05/31 09:21:53;;;;;;;6.15;5.20;;;;;;;;;;4992486;28;20483;-75
2022/05/31 09:24:22;;;;;;;5.15;4.65;;;;;;;;;;4990702;28;20069;-75
2022/05/31 09:26:51;;;;;;;5.05;4.55;;;;;;;;;;4993922;28;20060;-75
2022/05/31 09:29:36;;;;;;;6.32;4.75;;;;;;;;;;4994014;28;20063;-75
2022/05/31 09:32:21;;;;;;;5.40;4.90;;;;;;;;;;4991272;28;20485;-75
2022/05/31 09:34:56;;;;;;;6.95;5.07;;;;;;;;;;4991851;28;20457;-75
2022/05/31 09:37:31;;;;;;;7.32;5.20;;;;;;;;;;4992347;28;20112;-75
2022/05/31 09:40:16;;;;;;;5.68;4.78;;;;;;;;;;4993569;28;20074;-75
2022/05/31 09:42:53;;;;;;;6.05;5.43;;;;;;;;;;4992250;28;20100;-75
2022/05/31 09:45:21;;;;;;;6.82;4.70;;;;;;;;;;4991045;28;20050;-75
2022/05/31 09:47:50;;;;;;;8.05;5.88;;;;;;;;;;4993288;28;20540;-75
2022/05/31 09:50:23;;;;;;;7.22;5.68;;;;;;;;;;4991754;28;20054;-75
2022/05/31 09:52:56;;;;;;;6.57;5.93;;;;;;;;;;4992358;28;20038;-75
2022/05/31 09:58:16;;;;;;;;;;;;;;;;;;4990978;28;20084;-75
2022/05/31 10:01:01;;;;;;;6.53;5.85;;;;;;;;;;4991991;28;19965;-75
2022/05/31 10:03:33;;;;;;;6.15;5.50;;;;;;;;;;4991126;28;20054;-75
2022/05/31 10:06:06;;;;;;;10.13;6.03;;;;;;;;;;4990486;28;20364;-75
2022/05/31 10:08:33;;;;;;;7.88;6.47;;;;;;;;;;4991027;28;20054;-75
2022/05/31 10:11:04;;;;;;;6.90;6.20;;;;;;;;;;4992392;28;20046;-75
2022/05/31 10:13:35;;;;;;;7.60;5.72;;;;;;;;;;4990275;28;20108;-75
2022/05/31 10:16:15;;;;;;;8.27;5.90;;;;;;;;;;4988908;28;20034;-75
2022/05/31 10:18:50;;;;;;;8.27;6.25;;;;;;;;;;4992114;28;20501;-75
2022/05/31 10:21:34;;;;;;;6.78;5.88;;;;;;;;;;4989041;28;20137;-75
2022/05/31 10:24:20;;;;;;;6.03;5.35;;;;;;;;;;4991168;28;20034;-75
2022/05/31 10:27:05;;;;;;;6.30;5.70;;;;;;;;;;4989887;28;20058;-75
2022/05/31 10:29:36;;;;;;;7.88;5.70;;;;;;;;;;4991201;28;20497;-75
2022/05/31 10:32:22;;;;;;;6.85;5.70;;;;;;;;;;4990274;28;20078;-75
2022/05/31 10:34:48;;;;;;;7.40;5.38;;;;;;;;;;4990840;28;20046;-75
2022/05/31 10:37:29;;;;;;;7.50;5.88;;;;;;;;;;4993665;28;20074;-75
2022/05/31 10:40:00;;;;;;;7.32;6.47;;;;;;;;;;4990964;28;20050;-75
2022/05/31 10:42:29;;;;;;;7.30;6.60;;;;;;;;;;4991044;28;20414;-75
2022/05/31 10:44:57;;;;;;;7.10;6.40;;;;;;;;;;4992834;28;20058;-75
2022/05/31 10:47:24;;;;;;;7.28;6.05;;;;;;;;;;4989847;28;20105;-75
2022/05/31 10:49:51;;;;;;;7.47;6.40;;;;;;;;;;4992485;28;20060;-75
2022/05/31 10:52:23;;;;;;;7.50;6.38;;;;;;;;;;4990924;28;20104;-75
2022/05/31 10:54:49;;;;;;;8.15;5.85;;;;;;;;;;4991750;28;20128;-75
2022/05/31 10:57:18;;;;;;;7.32;6.00;;;;;;;;;;4989614;28;20058;-75
2022/05/31 10:59:52;;;;;;;8.43;6.82;;;;;;;;;;4990691;28;20044;-75
2022/05/31 11:02:21;;;;;;;7.28;6.18;;;;;;;;;;4989800;28;20113;-75
2022/05/31 11:05:00;;;;;;;6.43;5.72;;;;;;;;;;4991154;28;20094;-75
2022/05/31 11:07:30;;;;;;;7.18;5.63;;;;;;;;;;4990917;28;20113;-75
2022/05/31 11:12:58;;;;;;;7.00;6.28;;;;;;;;;;4976262;28;20042;-75
2022/05/31 11:15:29;;;;;;;7.25;6.50;;;;;;;;;;4987636;28;20078;-75
2022/05/31 11:18:15;;;;;;;6.97;5.88;;;;;;;;;;4985726;28;20053;-75
2022/05/31 11:20:46;;;;;;;7.70;6.90;;;;;;;;;;4990091;28;20128;-75
2022/05/31 11:23:15;;;;;;;10.10;7.25;;;;;;;;;;4989245;28;20054;-75
2022/05/31 11:25:57;;;;;;;8.77;6.88;;;;;;;;;;4990378;28;20062;-75
2022/05/31 11:28:29;;;;;;;8.77;6.90;;;;;;;;;;4989302;28;20486;-75
2022/05/31 11:31:22;;;;;;;8.20;7.30;;;;;;;;;;4989633;28;20101;-75
2022/05/31 11:34:06;;;;;;;7.43;6.68;;;;;;;;;;4989920;28;20061;-75
2022/05/31 11:36:47;;;;;;;9.20;6.30;;;;;;;;;;4986601;28;20403;-75
2022/05/31 11:39:16;;;;;;;8.23;6.72;;;;;;;;;;4991087;28;20050;-75
2022/05/31 11:41:42;;;;;;;8.82;7.75;;;;;;;;;;4989951;28;20125;-75
2022/05/31 11:44:08;;;;;;;8.52;7.07;;;;;;;;;;4989678;28;20050;-75
2022/05/31 11:46:47;;;;;;;9.63;7.63;;;;;;;;;;4990715;28;20510;-75
2022/05/31 11:49:28;;;;;;;9.52;7.88;;;;;;;;;;4991196;28;20409;-75
2022/05/31 11:51:57;;;;;;;8.60;7.70;;;;;;;;;;4980493;28;20104;-75
2022/05/31 11:54:42;;;;;;;9.52;7.35;;;;;;;;;;5006502;28;20042;-75
2022/05/31 11:57:14;;;;;;;8.32;7.50;;;;;;;;;;4991053;28;20105;-75
2022/05/31 11:59:49;;;;;;;10.40;7.10;;;;;;;;;;4988961;28;20062;-75
2022/05/31 12:02:29;;;;;;;9.73;7.63;;;;;;;;;;4991135;28;20083;-75
2022/05/31 12:05:00;;;;;;;8.45;7.45;;;;;;;;;;4989773;28;20050;-75
2022/05/31 12:07:32;;;;;;;10.05;7.60;;;;;;;;;;4990716;28;20402;-75
2022/05/31 12:10:07;;;;;;;8.10;7.25;;;;;;;;;;4990864;28;20061;-75
2022/05/31 12:12:35;;;;;;;7.88;7.07;;;;;;;;;;4986481;28;20042;-75
2022/05/31 12:15:09;;;;;;;8.38;7.57;;;;;;;;;;4994203;28;20050;-75
2022/05/31 12:17:48;;;;;;;8.43;7.63;;;;;;;;;;4995228;28;20062;-75
2022/05/31 12:20:25;;;;;;;8.15;7.00;;;;;;;;;;4992696;28;20053;-75
2022/05/31 12:23:07;;;;;;;8.63;7.15;;;;;;;;;;4991079;28;20042;-75
2022/05/31 12:25:40;;;;;;;8.07;7.28;;;;;;;;;;4992878;28;20061;-75
2022/05/31 12:28:18;;;;;;;8.48;6.68;;;;;;;;;;4994676;28;20050;-75
2022/05/31 12:30:56;;;;;;;7.00;6.30;;;;;;;;;;4995447;28;20046;-75
2022/05/31 12:33:43;;;;;;;7.47;6.65;;;;;;;;;;4994518;28;20043;-75
2022/05/31 12:36:10;;;;;;;6.97;5.60;;;;;;;;;;5009107;28;20057;-75
2022/05/31 12:38:55;;;;;;;8.85;7.03;;;;;;;;;;4991884;28;20050;-75
2022/05/31 12:41:33;;;;;;;9.10;7.30;;;;;;;;;;4992885;28;20046;-75
2022/05/31 12:44:00;;;;;;;8.15;7.28;;;;;;;;;;4993066;28;20046;-75
2022/05/31 12:46:40;;;;;;;9.65;7.20;;;;;;;;;;4981858;28;20050;-75
2022/05/31 12:49:21;;;;;;;8.52;7.72;;;;;;;;;;4993881;28;20042;-75
2022/05/31 12:52:05;;;;;;;8.32;7.40;;;;;;;;;;4992687;28;20038;-75
2022/05/31 12:54:48;;;;;;;8.80;7.15;;;;;;;;;;4973622;28;20102;-75
2022/05/31 13:00:33;;;;;;;8.35;7.18;;;;;;;;;;4993169;28;20050;-75
2022/05/31 13:03:05;;;;;;;7.50;6.68;;;;;;;;;;4993300;28;20435;-75
2022/05/31 13:05:37;;;;;;;8.68;7.60;;;;;;;;;;4994823;28;20057;-75
2022/05/31 13:08:32;;;;;;;9.02;7.63;;;;;;;;;;4992679;28;20046;-75
2022/05/31 13:22:04;;;;;;;7.57;6.78;;;;;;;;;;4991742;28;20078;-75
2022/05/31 13:24:31;;;;;;;9.32;7.35;;;;;;;;;;4991028;28;20041;-75
2022/05/31 13:26:59;;;;;;;7.95;6.60;;;;;;;;;;4992408;28;20053;-75
2022/05/31 13:29:25;;;;;;;6.85;6.20;;;;;;;;;;4991592;28;20161;-75
2022/05/31 13:31:58;;;;;;;8.68;6.57;;;;;;;;;;4992715;28;20053;-75
2022/05/31 13:34:32;;;;;;;6.45;5.78;;;;;;;;;;4973358;28;20050;-75
2022/05/31 13:36:59;;;;;;;6.60;5.88;;;;;;;;;;4988779;28;20513;-75
2022/05/31 13:39:26;;;;;;;7.25;6.25;;;;;;;;;;4991130;28;20042;-75
2022/05/31 13:41:57;;;;;;;5.97;5.38;;;;;;;;;;4991146;28;20042;-75
2022/05/31 13:44:26;;;;;;;6.00;5.38;;;;;;;;;;4991816;28;20402;-75
2022/05/31 13:46:53;;;;;;;7.40;5.45;;;;;;;;;;4992517;28;20046;-75
2022/05/31 13:49:28;;;;;;;6.10;5.28;;;;;;;;;;4992460;28;20445;-75
2022/05/31 13:52:01;;;;;;;6.68;5.25;;;;;;;;;;4983577;28;20046;-75
2022/05/31 13:54:28;;;;;;;7.07;5.65;;;;;;;;;;4992491;28;20188;-75
2022/05/31 13:56:59;;;;;;;5.45;4.70;;;;;;;;;;4991728;28;20080;-75
2022/05/31 13:59:34;;;;;;;5.55;4.93;;;;;;;;;;4992129;28;20117;-75
2022/05/31 14:02:01;;;;;;;7.53;6.20;;;;;;;;;;4992485;28;20394;-76
2022/05/31 14:04:35;;;;;;;7.32;6.57;;;;;;;;;;4991862;28;20074;-76
2022/05/31 14:07:04;;;;;;;8.10;6.53;;;;;;;;;;4992659;28;20069;-76
2022/05/31 14:09:35;;;;;;;7.10;6.40;;;;;;;;;;4993114;28;20454;-76
2022/05/31 14:12:06;;;;;;;7.75;6.40;;;;;;;;;;4982023;28;20046;-76
2022/05/31 14:14:34;;;;;;;8.63;6.90;;;;;;;;;;4990930;28;20053;-76
2022/05/31 14:17:02;;;;;;;6.65;5.93;;;;;;;;;;4989659;28;20046;-76
2022/05/31 14:19:43;;;;;;;7.22;6.53;;;;;;;;;;4992092;28;20546;-76
2022/05/31 14:22:18;;;;;;;8.02;6.38;;;;;;;;;;4991317;28;20045;-76
2022/05/31 14:24:46;;;;;;;6.97;6.18;;;;;;;;;;4990130;28;20058;-76
2022/05/31 14:27:13;;;;;;;7.15;6.25;;;;;;;;;;4990837;28;20061;-76
2022/05/31 14:29:39;;;;;;;7.82;6.25;;;;;;;;;;4990833;28;20510;-76
2022/05/31 14:32:05;;;;;;;6.68;5.80;;;;;;;;;;4990263;28;20046;-76
2022/05/31 14:34:36;;;;;;;7.88;5.22;;;;;;;;;;4990836;28;20054;-76
2022/05/31 14:37:03;;;;;;;6.10;5.43;;;;;;;;;;4988567;28;20968;-76
2022/05/31 14:39:30;;;;;;;6.43;5.25;;;;;;;;;;4988625;28;20102;-76
2022/05/31 14:41:56;;;;;;;6.07;5.35;;;;;;;;;;4992218;28;20153;-76
2022/05/31 14:44:42;;;;;;;5.63;5.10;;;;;;;;;;4992648;28;20129;-76
2022/05/31 14:47:10;;;;;;;5.50;4.78;;;;;;;;;;4990824;28;20104;-76
2022/05/31 14:49:53;;;;;;;7.05;5.15;;;;;;;;;;4989635;28;20045;-76
2022/05/31 14:52:19;;;;;;;5.78;4.22;;;;;;;;;;4991595;28;20473;-76
2022/05/31 14:54:47;;;;;;;6.63;4.63;;;;;;;;;;4991884;28;20133;-77